sensor_id;sensor_type;location;lat;lon;timestamp;pressure;altitude;pressure_sealevel;temperature;humidity
36788;BME280;22738;45.560;9.434;2023-05-23T00:03:47;99626.94;;;18.46;100.00
36788;BME280;22738;45.560;9.434;2023-05-23T00:10:29;99609.94;;;18.59;100.00
36788;BME280;22738;45.560;9.434;2023-05-23T00:17:11;99604.28;;;18.71;100.00
36788;BME280;22738;45.560;9.434;2023-05-23T00:23:52;99599.03;;;18.71;100.00
36788;BME280;22738;45.560;9.434;2023-05-23T00:30:33;99597.72;;;18.67;100.00
36788;BME280;22738;45.560;9.434;2023-05-23T00:37:16;99586.16;;;18.60;100.00
36788;BME280;22738;45.560;9.434;2023-05-23T00:43:58;99590.63;;;18.68;100.00
36788;BME280;22738;45.560;9.434;2023-05-23T00:50:40;99578.50;;;18.67;100.00
36788;BME280;22738;45.560;9.434;2023-05-23T00:57:22;99583.09;;;18.65;100.00
36788;BME280;22738;45.560;9.434;2023-05-23T01:04:05;99589.56;;;18.52;100.00
36788;BME280;22738;45.560;9.434;2023-05-23T01:10:47;99586.81;;;18.44;100.00
36788;BME280;22738;45.560;9.434;2023-05-23T01:24:42;99597.69;;;18.06;100.00
36788;BME280;22738;45.560;9.434;2023-05-23T01:31:28;99599.13;;;18.01;100.00
36788;BME280;22738;45.560;9.434;2023-05-23T01:38:10;99590.50;;;17.91;100.00
36788;BME280;22738;45.560;9.434;2023-05-23T01:44:51;99585.72;;;17.86;100.00
36788;BME280;22738;45.560;9.434;2023-05-23T01:51:33;99576.66;;;17.80;100.00
36788;BME280;22738;45.560;9.434;2023-05-23T01:58:15;99575.72;;;17.54;100.00
36788;BME280;22738;45.560;9.434;2023-05-23T02:04:58;99584.28;;;17.47;100.00
36788;BME280;22738;45.560;9.434;2023-05-23T02:11:39;99583.75;;;17.53;100.00
36788;BME280;22738;45.560;9.434;2023-05-23T02:18:21;99581.13;;;17.53;100.00
36788;BME280;22738;45.560;9.434;2023-05-23T02:25:07;99594.25;;;17.43;100.00
36788;BME280;22738;45.560;9.434;2023-05-23T02:31:49;99596.16;;;17.24;100.00
36788;BME280;22738;45.560;9.434;2023-05-23T02:38:33;99584.41;;;17.28;100.00
36788;BME280;22738;45.560;9.434;2023-05-23T02:45:16;99582.66;;;17.19;100.00
36788;BME280;22738;45.560;9.434;2023-05-23T02:51:58;99580.88;;;17.19;100.00
36788;BME280;22738;45.560;9.434;2023-05-23T02:58:39;99578.63;;;17.24;100.00
36788;BME280;22738;45.560;9.434;2023-05-23T03:05:20;99590.63;;;17.27;100.00
36788;BME280;22738;45.560;9.434;2023-05-23T03:12:01;99590.28;;;17.39;100.00
36788;BME280;22738;45.560;9.434;2023-05-23T03:18:44;99587.22;;;17.44;100.00
36788;BME280;22738;45.560;9.434;2023-05-23T03:25:25;99595.09;;;17.44;100.00
36788;BME280;22738;45.560;9.434;2023-05-23T03:32:08;99607.31;;;17.26;100.00
36788;BME280;22738;45.560;9.434;2023-05-23T03:38:53;99605.66;;;17.25;100.00
36788;BME280;22738;45.560;9.434;2023-05-23T03:45:36;99597.75;;;17.07;100.00
36788;BME280;22738;45.560;9.434;2023-05-23T03:52:24;99606.88;;;17.03;100.00
36788;BME280;22738;45.560;9.434;2023-05-23T03:59:05;99603.44;;;16.93;100.00
36788;BME280;22738;45.560;9.434;2023-05-23T04:05:46;99601.66;;;16.93;100.00
36788;BME280;22738;45.560;9.434;2023-05-23T04:12:28;99596.94;;;16.97;100.00
36788;BME280;22738;45.560;9.434;2023-05-23T04:19:13;99600.88;;;17.10;100.00
36788;BME280;22738;45.560;9.434;2023-05-23T04:25:54;99610.66;;;17.18;100.00
36788;BME280;22738;45.560;9.434;2023-05-23T04:32:44;99612.56;;;17.53;100.00
36788;BME280;22738;45.560;9.434;2023-05-23T04:39:26;99610.88;;;17.79;100.00
36788;BME280;22738;45.560;9.434;2023-05-23T04:46:32;99617.91;;;18.31;100.00
36788;BME280;22738;45.560;9.434;2023-05-23T04:53:46;99611.28;;;20.93;100.00
36788;BME280;22738;45.560;9.434;2023-05-23T05:00:29;99618.09;;;20.15;100.00
36788;BME280;22738;45.560;9.434;2023-05-23T05:07:10;99616.09;;;19.84;100.00
36788;BME280;22738;45.560;9.434;2023-05-23T05:13:51;99614.28;;;19.93;100.00
36788;BME280;22738;45.560;9.434;2023-05-23T05:20:34;99606.28;;;20.27;100.00
36788;BME280;22738;45.560;9.434;2023-05-23T05:27:15;99604.91;;;22.55;100.00
36788;BME280;22738;45.560;9.434;2023-05-23T05:33:57;99601.13;;;26.80;100.00
36788;BME280;22738;45.560;9.434;2023-05-23T05:40:38;99622.50;;;28.87;100.00
36788;BME280;22738;45.560;9.434;2023-05-23T05:47:19;99608.41;;;30.12;97.48
36788;BME280;22738;45.560;9.434;2023-05-23T05:54:01;99621.16;;;30.74;93.03
36788;BME280;22738;45.560;9.434;2023-05-23T06:00:44;99622.06;;;31.94;71.91
36788;BME280;22738;45.560;9.434;2023-05-23T06:07:25;99622.50;;;31.75;72.55
36788;BME280;22738;45.560;9.434;2023-05-23T06:14:06;99621.50;;;32.54;64.80
36788;BME280;22738;45.560;9.434;2023-05-23T06:20:50;99643.09;;;33.14;61.11
36788;BME280;22738;45.560;9.434;2023-05-23T06:27:33;99631.28;;;33.36;57.31
36788;BME280;22738;45.560;9.434;2023-05-23T06:34:16;99632.25;;;33.73;59.10
36788;BME280;22738;45.560;9.434;2023-05-23T06:41:00;99634.25;;;33.83;61.65
36788;BME280;22738;45.560;9.434;2023-05-23T06:47:44;99625.63;;;34.71;55.59
36788;BME280;22738;45.560;9.434;2023-05-23T06:54:28;99623.34;;;34.95;51.86
36788;BME280;22738;45.560;9.434;2023-05-23T07:01:09;99621.28;;;35.84;49.15
36788;BME280;22738;45.560;9.434;2023-05-23T07:07:58;99620.78;;;35.97;45.70
36788;BME280;22738;45.560;9.434;2023-05-23T07:14:40;99619.91;;;35.66;44.61
36788;BME280;22738;45.560;9.434;2023-05-23T07:21:21;99617.78;;;35.89;46.58
36788;BME280;22738;45.560;9.434;2023-05-23T07:28:03;99611.00;;;35.61;46.68
36788;BME280;22738;45.560;9.434;2023-05-23T07:34:44;99608.16;;;34.42;54.83
36788;BME280;22738;45.560;9.434;2023-05-23T07:41:25;99602.78;;;33.84;56.85
36788;BME280;22738;45.560;9.434;2023-05-23T07:48:07;99613.72;;;33.07;51.63
36788;BME280;22738;45.560;9.434;2023-05-23T07:54:48;99601.75;;;32.60;54.15
36788;BME280;22738;45.560;9.434;2023-05-23T08:01:33;99593.78;;;31.58;61.69
36788;BME280;22738;45.560;9.434;2023-05-23T08:08:21;99585.38;;;31.27;69.83
36788;BME280;22738;45.560;9.434;2023-05-23T08:15:02;99584.84;;;31.53;72.28
36788;BME280;22738;45.560;9.434;2023-05-23T08:21:51;99589.72;;;31.84;75.82
36788;BME280;22738;45.560;9.434;2023-05-23T08:28:33;99589.53;;;32.02;57.68
36788;BME280;22738;45.560;9.434;2023-05-23T08:35:18;99585.94;;;31.68;67.83
36788;BME280;22738;45.560;9.434;2023-05-23T08:42:00;99583.31;;;31.57;81.98
36788;BME280;22738;45.560;9.434;2023-05-23T08:48:43;99592.50;;;31.89;80.02
36788;BME280;22738;45.560;9.434;2023-05-23T08:55:30;99583.13;;;31.47;88.07
36788;BME280;22738;45.560;9.434;2023-05-23T09:02:15;99578.75;;;31.18;80.05
36788;BME280;22738;45.560;9.434;2023-05-23T09:08:57;99588.13;;;32.00;64.71
36788;BME280;22738;45.560;9.434;2023-05-23T09:15:55;99578.28;;;31.21;71.21
36788;BME280;22738;45.560;9.434;2023-05-23T09:22:37;99577.69;;;31.30;78.87
36788;BME280;22738;45.560;9.434;2023-05-23T09:29:26;99576.81;;;31.53;80.44
36788;BME280;22738;45.560;9.434;2023-05-23T09:36:08;99577.56;;;31.37;87.43
36788;BME280;22738;45.560;9.434;2023-05-23T09:42:49;99574.28;;;31.35;91.38
36788;BME280;22738;45.560;9.434;2023-05-23T09:49:31;99566.72;;;31.43;88.51
36788;BME280;22738;45.560;9.434;2023-05-23T09:56:15;99567.66;;;31.65;80.40
36788;BME280;22738;45.560;9.434;2023-05-23T10:09:47;99551.34;;;31.84;78.83
36788;BME280;22738;45.560;9.434;2023-05-23T10:23:28;99549.19;;;31.52;70.40
36788;BME280;22738;45.560;9.434;2023-05-23T10:30:10;99537.66;;;31.40;67.44
36788;BME280;22738;45.560;9.434;2023-05-23T10:37:01;99537.25;;;31.32;65.29
36788;BME280;22738;45.560;9.434;2023-05-23T10:50:35;99518.75;;;30.79;87.00
36788;BME280;22738;45.560;9.434;2023-05-23T10:57:21;99519.03;;;31.06;84.69
36788;BME280;22738;45.560;9.434;2023-05-23T11:04:06;99506.44;;;30.66;80.92
36788;BME280;22738;45.560;9.434;2023-05-23T11:11:00;99505.31;;;31.02;88.40
36788;BME280;22738;45.560;9.434;2023-05-23T11:18:01;99491.91;;;31.14;77.51
36788;BME280;22738;45.560;9.434;2023-05-23T11:24:53;99497.63;;;31.34;89.07
36788;BME280;22738;45.560;9.434;2023-05-23T11:31:38;99496.28;;;31.20;76.74
36788;BME280;22738;45.560;9.434;2023-05-23T11:38:20;99486.72;;;31.24;78.04
36788;BME280;22738;45.560;9.434;2023-05-23T11:45:02;99482.41;;;30.94;78.40
36788;BME280;22738;45.560;9.434;2023-05-23T11:51:43;99487.75;;;30.94;71.47
36788;BME280;22738;45.560;9.434;2023-05-23T11:58:26;99479.69;;;30.66;59.57
36788;BME280;22738;45.560;9.434;2023-05-23T12:05:12;99464.53;;;30.60;66.76
36788;BME280;22738;45.560;9.434;2023-05-23T12:11:53;99466.34;;;30.94;61.86
36788;BME280;22738;45.560;9.434;2023-05-23T12:18:36;99471.25;;;31.26;51.41
36788;BME280;22738;45.560;9.434;2023-05-23T12:25:17;99449.66;;;30.64;54.36
36788;BME280;22738;45.560;9.434;2023-05-23T12:31:59;99447.97;;;30.86;50.07
36788;BME280;22738;45.560;9.434;2023-05-23T12:38:41;99434.88;;;31.01;59.11
36788;BME280;22738;45.560;9.434;2023-05-23T12:45:35;99430.38;;;31.19;53.95
36788;BME280;22738;45.560;9.434;2023-05-23T12:52:16;99433.94;;;31.08;53.62
36788;BME280;22738;45.560;9.434;2023-05-23T12:58:57;99432.63;;;31.10;51.72
36788;BME280;22738;45.560;9.434;2023-05-23T13:05:39;99420.97;;;31.16;46.30
36788;BME280;22738;45.560;9.434;2023-05-23T13:12:20;99419.16;;;30.65;48.20
36788;BME280;22738;45.560;9.434;2023-05-23T13:19:01;99421.25;;;30.63;48.76
36788;BME280;22738;45.560;9.434;2023-05-23T13:25:42;99400.53;;;29.96;49.72
36788;BME280;22738;45.560;9.434;2023-05-23T13:32:23;99406.09;;;30.17;54.21
36788;BME280;22738;45.560;9.434;2023-05-23T13:39:04;99399.78;;;30.35;51.12
36788;BME280;22738;45.560;9.434;2023-05-23T13:45:45;99393.94;;;30.61;49.91
36788;BME280;22738;45.560;9.434;2023-05-23T13:52:27;99401.50;;;31.21;46.26
36788;BME280;22738;45.560;9.434;2023-05-23T13:59:08;99396.88;;;30.88;49.07
36788;BME280;22738;45.560;9.434;2023-05-23T14:05:49;99390.50;;;30.38;53.24
36788;BME280;22738;45.560;9.434;2023-05-23T14:12:30;99386.78;;;30.15;53.97
36788;BME280;22738;45.560;9.434;2023-05-23T14:19:11;99384.81;;;30.11;54.64
36788;BME280;22738;45.560;9.434;2023-05-23T14:25:52;99385.53;;;29.95;58.14
36788;BME280;22738;45.560;9.434;2023-05-23T14:32:33;99375.28;;;30.15;55.30
36788;BME280;22738;45.560;9.434;2023-05-23T14:39:18;99367.63;;;30.07;55.55
36788;BME280;22738;45.560;9.434;2023-05-23T14:45:59;99358.63;;;30.24;55.02
36788;BME280;22738;45.560;9.434;2023-05-23T14:52:40;99356.81;;;30.53;51.35
36788;BME280;22738;45.560;9.434;2023-05-23T14:59:21;99361.31;;;30.36;52.72
36788;BME280;22738;45.560;9.434;2023-05-23T15:06:03;99353.88;;;30.15;55.14
36788;BME280;22738;45.560;9.434;2023-05-23T15:12:45;99347.88;;;29.61;58.42
36788;BME280;22738;45.560;9.434;2023-05-23T15:19:26;99342.03;;;29.64;58.74
36788;BME280;22738;45.560;9.434;2023-05-23T15:26:07;99340.19;;;29.53;57.99
36788;BME280;22738;45.560;9.434;2023-05-23T15:32:48;99337.53;;;29.65;56.66
36788;BME280;22738;45.560;9.434;2023-05-23T15:39:29;99344.53;;;29.78;60.37
36788;BME280;22738;45.560;9.434;2023-05-23T15:46:11;99347.75;;;30.14;56.72
36788;BME280;22738;45.560;9.434;2023-05-23T15:52:52;99347.03;;;30.19;60.81
36788;BME280;22738;45.560;9.434;2023-05-23T15:59:35;99343.09;;;30.10;55.97
36788;BME280;22738;45.560;9.434;2023-05-23T16:06:17;99336.84;;;29.93;56.39
36788;BME280;22738;45.560;9.434;2023-05-23T16:12:58;99342.44;;;29.80;56.63
36788;BME280;22738;45.560;9.434;2023-05-23T16:19:40;99347.38;;;29.64;63.41
36788;BME280;22738;45.560;9.434;2023-05-23T16:26:21;99335.94;;;29.11;73.22
36788;BME280;22738;45.560;9.434;2023-05-23T16:33:02;99342.09;;;29.12;66.04
36788;BME280;22738;45.560;9.434;2023-05-23T16:39:43;99345.72;;;29.17;66.25
36788;BME280;22738;45.560;9.434;2023-05-23T16:46:24;99338.38;;;29.13;69.03
36788;BME280;22738;45.560;9.434;2023-05-23T16:53:06;99346.31;;;28.78;89.75
36788;BME280;22738;45.560;9.434;2023-05-23T16:59:48;99354.41;;;28.17;93.94
36788;BME280;22738;45.560;9.434;2023-05-23T17:06:29;99361.44;;;27.93;99.46
36788;BME280;22738;45.560;9.434;2023-05-23T17:13:11;99361.13;;;27.83;95.76
36788;BME280;22738;45.560;9.434;2023-05-23T17:19:52;99359.41;;;27.71;100.00
36788;BME280;22738;45.560;9.434;2023-05-23T17:26:33;99357.22;;;27.61;100.00
36788;BME280;22738;45.560;9.434;2023-05-23T17:33:14;99353.81;;;27.54;100.00
36788;BME280;22738;45.560;9.434;2023-05-23T17:39:55;99352.91;;;27.11;100.00
36788;BME280;22738;45.560;9.434;2023-05-23T17:46:36;99367.97;;;26.48;100.00
36788;BME280;22738;45.560;9.434;2023-05-23T17:53:17;99357.06;;;25.98;100.00
36788;BME280;22738;45.560;9.434;2023-05-23T17:59:59;99350.59;;;25.62;100.00
36788;BME280;22738;45.560;9.434;2023-05-23T18:06:41;99341.16;;;25.33;100.00
36788;BME280;22738;45.560;9.434;2023-05-23T18:13:23;99346.06;;;25.03;100.00
36788;BME280;22738;45.560;9.434;2023-05-23T18:20:05;99351.03;;;24.65;100.00
36788;BME280;22738;45.560;9.434;2023-05-23T18:26:47;99352.41;;;24.42;100.00
36788;BME280;22738;45.560;9.434;2023-05-23T18:33:28;99357.19;;;24.19;100.00
36788;BME280;22738;45.560;9.434;2023-05-23T18:40:10;99357.44;;;23.96;100.00
36788;BME280;22738;45.560;9.434;2023-05-23T18:46:53;99367.97;;;23.83;100.00
36788;BME280;22738;45.560;9.434;2023-05-23T18:53:34;99380.03;;;23.64;100.00
36788;BME280;22738;45.560;9.434;2023-05-23T19:00:15;99385.84;;;23.53;100.00
36788;BME280;22738;45.560;9.434;2023-05-23T19:06:58;99395.78;;;23.51;100.00
36788;BME280;22738;45.560;9.434;2023-05-23T19:13:40;99404.03;;;23.35;100.00
36788;BME280;22738;45.560;9.434;2023-05-23T19:20:22;99411.72;;;23.15;100.00
36788;BME280;22738;45.560;9.434;2023-05-23T19:27:04;99421.81;;;22.91;100.00
36788;BME280;22738;45.560;9.434;2023-05-23T19:33:46;99429.47;;;22.64;100.00
36788;BME280;22738;45.560;9.434;2023-05-23T19:40:27;99441.53;;;22.59;100.00
36788;BME280;22738;45.560;9.434;2023-05-23T19:47:13;99456.25;;;22.61;100.00
36788;BME280;22738;45.560;9.434;2023-05-23T19:53:55;99458.56;;;22.56;100.00
36788;BME280;22738;45.560;9.434;2023-05-23T20:00:36;99467.25;;;22.50;100.00
36788;BME280;22738;45.560;9.434;2023-05-23T20:07:18;99474.44;;;22.27;100.00
36788;BME280;22738;45.560;9.434;2023-05-23T20:14:02;99472.69;;;22.20;100.00
36788;BME280;22738;45.560;9.434;2023-05-23T20:20:44;99476.78;;;22.22;100.00
36788;BME280;22738;45.560;9.434;2023-05-23T20:27:26;99478.94;;;22.04;100.00
36788;BME280;22738;45.560;9.434;2023-05-23T20:34:07;99478.78;;;21.83;100.00
36788;BME280;22738;45.560;9.434;2023-05-23T20:40:51;99494.38;;;21.70;100.00
36788;BME280;22738;45.560;9.434;2023-05-23T20:47:32;99491.88;;;21.54;100.00
36788;BME280;22738;45.560;9.434;2023-05-23T20:54:22;99493.88;;;21.52;100.00
36788;BME280;22738;45.560;9.434;2023-05-23T21:01:07;99502.81;;;21.43;100.00
36788;BME280;22738;45.560;9.434;2023-05-23T21:07:49;99502.66;;;21.21;100.00
36788;BME280;22738;45.560;9.434;2023-05-23T21:14:30;99498.75;;;21.09;100.00
36788;BME280;22738;45.560;9.434;2023-05-23T21:21:11;99524.00;;;21.35;100.00
36788;BME280;22738;45.560;9.434;2023-05-23T21:27:54;99552.63;;;21.38;100.00
36788;BME280;22738;45.560;9.434;2023-05-23T21:34:35;99543.09;;;21.37;100.00
36788;BME280;22738;45.560;9.434;2023-05-23T21:41:16;99542.88;;;21.46;100.00
36788;BME280;22738;45.560;9.434;2023-05-23T21:47:57;99548.38;;;21.37;100.00
36788;BME280;22738;45.560;9.434;2023-05-23T21:54:38;99546.72;;;21.36;100.00
36788;BME280;22738;45.560;9.434;2023-05-23T22:01:19;99562.28;;;21.22;100.00
36788;BME280;22738;45.560;9.434;2023-05-23T22:08:00;99549.00;;;21.08;100.00
36788;BME280;22738;45.560;9.434;2023-05-23T22:14:41;99544.00;;;21.21;100.00
36788;BME280;22738;45.560;9.434;2023-05-23T22:21:24;99543.88;;;21.14;100.00
36788;BME280;22738;45.560;9.434;2023-05-23T22:28:06;99542.44;;;20.96;100.00
36788;BME280;22738;45.560;9.434;2023-05-23T22:34:49;99550.16;;;20.50;100.00
36788;BME280;22738;45.560;9.434;2023-05-23T22:41:30;99532.66;;;20.66;100.00
36788;BME280;22738;45.560;9.434;2023-05-23T22:48:12;99524.78;;;20.57;100.00
36788;BME280;22738;45.560;9.434;2023-05-23T22:54:53;99531.28;;;20.23;100.00
36788;BME280;22738;45.560;9.434;2023-05-23T23:01:34;99528.97;;;20.28;100.00
36788;BME280;22738;45.560;9.434;2023-05-23T23:08:16;99521.66;;;20.54;100.00
36788;BME280;22738;45.560;9.434;2023-05-23T23:15:00;99517.41;;;20.53;100.00
36788;BME280;22738;45.560;9.434;2023-05-23T23:21:41;99513.75;;;20.54;100.00
36788;BME280;22738;45.560;9.434;2023-05-23T23:28:24;99505.53;;;20.49;100.00
36788;BME280;22738;45.560;9.434;2023-05-23T23:35:05;99500.97;;;20.35;100.00
36788;BME280;22738;45.560;9.434;2023-05-23T23:41:46;99504.13;;;20.22;100.00
36788;BME280;22738;45.560;9.434;2023-05-23T23:48:28;99506.59;;;20.24;100.00
36788;BME280;22738;45.560;9.434;2023-05-23T23:55:09;99498.03;;;20.30;100.00
